sensor_id;sensor_type;location;lat;lon;timestamp;noise_LAeq;noise_LA_min;noise_LA_max;noise_LA01;noise_LA95
66747;Laerm;53658;50.742;10.864;2023-02-01T00:00:26;38.59;35.94;42.53;;
66747;Laerm;53658;50.742;10.864;2023-02-01T00:02:52;38.58;35.66;42.03;;
66747;Laerm;53658;50.742;10.864;2023-02-01T00:05:18;38.82;35.94;46.33;;
66747;Laerm;53658;50.742;10.864;2023-02-01T00:07:47;39.12;35.94;47.02;;
66747;Laerm;53658;50.742;10.864;2023-02-01T00:10:14;39.84;35.94;55.31;;
66747;Laerm;53658;50.742;10.864;2023-02-01T00:12:39;38.66;35.66;42.03;;
66747;Laerm;53658;50.742;10.864;2023-02-01T00:15:06;38.63;35.36;42.09;;
66747;Laerm;53658;50.742;10.864;2023-02-01T00:17:31;38.76;35.36;47.06;;
66747;Laerm;53658;50.742;10.864;2023-02-01T00:19:57;38.62;35.36;42.98;;
66747;Laerm;53658;50.742;10.864;2023-02-01T00:22:23;38.79;35.66;45.04;;
66747;Laerm;53658;50.742;10.864;2023-02-01T00:24:49;38.60;35.66;42.22;;
66747;Laerm;53658;50.742;10.864;2023-02-01T00:27:14;38.76;35.66;43.77;;
66747;Laerm;53658;50.742;10.864;2023-02-01T00:29:44;38.67;35.66;41.96;;
66747;Laerm;53658;50.742;10.864;2023-02-01T00:32:10;38.68;35.94;41.38;;
66747;Laerm;53658;50.742;10.864;2023-02-01T00:34:36;38.73;35.66;42.16;;
66747;Laerm;53658;50.742;10.864;2023-02-01T00:37:02;38.73;35.94;42.30;;
66747;Laerm;53658;50.742;10.864;2023-02-01T00:39:28;38.84;35.86;41.82;;
66747;Laerm;53658;50.742;10.864;2023-02-01T00:41:53;38.88;35.94;43.99;;
66747;Laerm;53658;50.742;10.864;2023-02-01T00:44:39;38.73;36.45;42.41;;
66747;Laerm;53658;50.742;10.864;2023-02-01T00:47:04;38.87;35.66;42.93;;
66747;Laerm;53658;50.742;10.864;2023-02-01T00:49:30;38.71;35.94;42.53;;
66747;Laerm;53658;50.742;10.864;2023-02-01T00:51:56;38.67;35.66;42.59;;
66747;Laerm;53658;50.742;10.864;2023-02-01T00:54:22;38.65;35.36;42.41;;
66747;Laerm;53658;50.742;10.864;2023-02-01T00:56:48;38.67;35.36;42.22;;
66747;Laerm;53658;50.742;10.864;2023-02-01T00:59:14;38.68;36.20;41.46;;
66747;Laerm;53658;50.742;10.864;2023-02-01T01:01:40;38.71;35.94;41.82;;
66747;Laerm;53658;50.742;10.864;2023-02-01T01:04:06;39.38;35.94;50.23;;
66747;Laerm;53658;50.742;10.864;2023-02-01T01:06:33;38.94;36.69;42.76;;
66747;Laerm;53658;50.742;10.864;2023-02-01T01:09:01;38.83;36.20;41.61;;
66747;Laerm;53658;50.742;10.864;2023-02-01T01:11:32;38.96;36.20;42.47;;
66747;Laerm;53658;50.742;10.864;2023-02-01T01:13:59;38.91;36.45;41.82;;
66747;Laerm;53658;50.742;10.864;2023-02-01T01:16:28;38.98;36.10;42.47;;
66747;Laerm;53658;50.742;10.864;2023-02-01T01:18:55;38.94;36.69;42.09;;
66747;Laerm;53658;50.742;10.864;2023-02-01T01:21:22;38.96;35.94;42.47;;
66747;Laerm;53658;50.742;10.864;2023-02-01T01:23:48;39.11;36.20;47.04;;
66747;Laerm;53658;50.742;10.864;2023-02-01T01:26:20;38.90;35.94;41.96;;
66747;Laerm;53658;50.742;10.864;2023-02-01T01:28:46;38.96;36.45;42.09;;
66747;Laerm;53658;50.742;10.864;2023-02-01T01:31:14;39.04;35.94;44.23;;
66747;Laerm;53658;50.742;10.864;2023-02-01T01:33:41;38.96;36.45;42.22;;
66747;Laerm;53658;50.742;10.864;2023-02-01T01:36:10;39.00;35.94;42.29;;
66747;Laerm;53658;50.742;10.864;2023-02-01T01:38:38;39.18;36.20;44.89;;
66747;Laerm;53658;50.742;10.864;2023-02-01T01:41:05;38.95;35.94;44.73;;
66747;Laerm;53658;50.742;10.864;2023-02-01T01:46:19;38.92;36.20;41.53;;
66747;Laerm;53658;50.742;10.864;2023-02-01T01:48:47;38.92;36.20;44.23;;
66747;Laerm;53658;50.742;10.864;2023-02-01T01:51:17;38.89;36.20;41.68;;
66747;Laerm;53658;50.742;10.864;2023-02-01T01:53:55;38.98;36.45;45.04;;
66747;Laerm;53658;50.742;10.864;2023-02-01T01:56:24;38.79;35.94;42.82;;
66747;Laerm;53658;50.742;10.864;2023-02-01T01:58:52;38.76;35.94;41.53;;
66747;Laerm;53658;50.742;10.864;2023-02-01T02:01:19;38.74;35.94;42.76;;
66747;Laerm;53658;50.742;10.864;2023-02-01T02:03:46;38.68;35.94;41.96;;
66747;Laerm;53658;50.742;10.864;2023-02-01T02:08:47;38.76;36.20;41.82;;
66747;Laerm;53658;50.742;10.864;2023-02-01T02:11:16;38.74;36.20;42.13;;
66747;Laerm;53658;50.742;10.864;2023-02-01T02:13:47;38.74;36.20;41.82;;
66747;Laerm;53658;50.742;10.864;2023-02-01T02:16:18;38.86;36.20;42.76;;
66747;Laerm;53658;50.742;10.864;2023-02-01T02:21:56;38.99;35.94;45.94;;
66747;Laerm;53658;50.742;10.864;2023-02-01T02:27:09;38.80;35.36;42.53;;
66747;Laerm;53658;50.742;10.864;2023-02-01T02:36:15;38.22;33.44;53.66;;
66747;Laerm;53658;50.742;10.864;2023-02-01T02:41:50;38.36;33.44;62.07;;
66747;Laerm;53658;50.742;10.864;2023-02-01T02:44:57;45.36;32.35;80.51;;
66747;Laerm;53658;50.742;10.864;2023-02-01T02:47:47;40.64;32.35;71.90;;
66747;Laerm;53658;50.742;10.864;2023-02-01T02:53:14;37.83;32.93;50.63;;
66747;Laerm;53658;50.742;10.864;2023-02-01T02:56:03;37.65;31.68;48.87;;
66747;Laerm;53658;50.742;10.864;2023-02-01T02:58:50;37.48;32.35;48.46;;
66747;Laerm;53658;50.742;10.864;2023-02-01T03:01:37;37.55;32.93;52.32;;
66747;Laerm;53658;50.742;10.864;2023-02-01T03:04:22;37.53;32.35;57.77;;
66747;Laerm;53658;50.742;10.864;2023-02-01T03:06:49;37.81;31.68;45.88;;
66747;Laerm;53658;50.742;10.864;2023-02-01T03:09:26;39.49;32.35;65.21;;
66747;Laerm;53658;50.742;10.864;2023-02-01T03:12:05;37.83;32.93;42.24;;
66747;Laerm;53658;50.742;10.864;2023-02-01T03:14:57;37.72;32.35;49.62;;
66747;Laerm;53658;50.742;10.864;2023-02-01T03:17:34;37.67;31.68;42.93;;
66747;Laerm;53658;50.742;10.864;2023-02-01T03:20:03;37.56;32.35;43.09;;
66747;Laerm;53658;50.742;10.864;2023-02-01T03:22:33;37.53;30.89;53.19;;
66747;Laerm;53658;50.742;10.864;2023-02-01T03:25:12;37.39;31.68;47.32;;
66747;Laerm;53658;50.742;10.864;2023-02-01T03:30:32;37.27;29.92;58.46;;
66747;Laerm;53658;50.742;10.864;2023-02-01T03:33:04;37.31;32.35;58.30;;
66747;Laerm;53658;50.742;10.864;2023-02-01T03:38:22;37.72;34.31;54.04;;
66747;Laerm;53658;50.742;10.864;2023-02-01T03:41:00;38.14;33.90;55.52;;
66747;Laerm;53658;50.742;10.864;2023-02-01T03:43:32;38.30;34.31;58.15;;
66747;Laerm;53658;50.742;10.864;2023-02-01T03:46:05;38.04;33.90;51.91;;
66747;Laerm;53658;50.742;10.864;2023-02-01T03:48:35;38.13;34.69;49.90;;
66747;Laerm;53658;50.742;10.864;2023-02-01T03:51:06;38.38;35.04;56.68;;
66747;Laerm;53658;50.742;10.864;2023-02-01T03:53:36;38.34;35.36;54.11;;
66747;Laerm;53658;50.742;10.864;2023-02-01T03:56:03;38.45;35.04;57.94;;
66747;Laerm;53658;50.742;10.864;2023-02-01T03:58:48;38.46;35.66;46.84;;
66747;Laerm;53658;50.742;10.864;2023-02-01T04:01:30;38.52;35.66;42.82;;
66747;Laerm;53658;50.742;10.864;2023-02-01T04:03:57;38.49;35.94;42.03;;
66747;Laerm;53658;50.742;10.864;2023-02-01T04:06:24;38.48;35.36;43.24;;
66747;Laerm;53658;50.742;10.864;2023-02-01T04:08:52;38.53;35.66;43.49;;
66747;Laerm;53658;50.742;10.864;2023-02-01T04:11:18;38.61;35.59;41.81;;
66747;Laerm;53658;50.742;10.864;2023-02-01T04:13:44;38.67;35.94;46.13;;
66747;Laerm;53658;50.742;10.864;2023-02-01T04:16:10;38.77;36.20;41.53;;
66747;Laerm;53658;50.742;10.864;2023-02-01T04:18:36;38.72;36.20;42.47;;
66747;Laerm;53658;50.742;10.864;2023-02-01T04:21:02;38.70;35.66;41.68;;
66747;Laerm;53658;50.742;10.864;2023-02-01T04:23:29;38.83;35.66;43.63;;
66747;Laerm;53658;50.742;10.864;2023-02-01T04:26:01;38.78;36.20;42.09;;
66747;Laerm;53658;50.742;10.864;2023-02-01T04:28:28;38.82;35.66;41.82;;
66747;Laerm;53658;50.742;10.864;2023-02-01T04:30:54;38.85;35.66;42.59;;
66747;Laerm;53658;50.742;10.864;2023-02-01T04:33:20;38.81;36.20;41.75;;
66747;Laerm;53658;50.742;10.864;2023-02-01T04:35:47;38.80;35.36;42.47;;
66747;Laerm;53658;50.742;10.864;2023-02-01T04:38:12;38.81;35.94;42.16;;
66747;Laerm;53658;50.742;10.864;2023-02-01T04:40:38;38.78;36.20;43.09;;
66747;Laerm;53658;50.742;10.864;2023-02-01T04:43:04;38.81;35.94;42.71;;
66747;Laerm;53658;50.742;10.864;2023-02-01T04:45:30;38.79;35.94;42.47;;
66747;Laerm;53658;50.742;10.864;2023-02-01T04:47:56;38.75;36.20;42.41;;
66747;Laerm;53658;50.742;10.864;2023-02-01T04:50:22;38.75;35.66;42.47;;
66747;Laerm;53658;50.742;10.864;2023-02-01T04:52:49;38.89;36.20;43.58;;
66747;Laerm;53658;50.742;10.864;2023-02-01T04:55:15;38.84;36.20;42.47;;
66747;Laerm;53658;50.742;10.864;2023-02-01T04:57:41;38.80;36.20;42.93;;
66747;Laerm;53658;50.742;10.864;2023-02-01T05:00:08;38.88;35.66;43.39;;
66747;Laerm;53658;50.742;10.864;2023-02-01T05:02:34;38.85;36.45;42.29;;
66747;Laerm;53658;50.742;10.864;2023-02-01T05:05:01;38.91;36.20;42.93;;
66747;Laerm;53658;50.742;10.864;2023-02-01T05:07:27;38.87;36.20;42.98;;
66747;Laerm;53658;50.742;10.864;2023-02-01T05:09:53;38.83;36.20;42.71;;
66747;Laerm;53658;50.742;10.864;2023-02-01T05:12:20;38.79;36.45;41.89;;
66747;Laerm;53658;50.742;10.864;2023-02-01T05:15:05;38.81;35.66;42.69;;
66747;Laerm;53658;50.742;10.864;2023-02-01T05:17:31;39.08;36.20;45.48;;
66747;Laerm;53658;50.742;10.864;2023-02-01T05:19:57;38.79;36.45;42.03;;
66747;Laerm;53658;50.742;10.864;2023-02-01T05:22:23;38.77;36.20;43.68;;
66747;Laerm;53658;50.742;10.864;2023-02-01T05:24:49;38.80;35.94;42.29;;
66747;Laerm;53658;50.742;10.864;2023-02-01T05:27:15;38.96;36.10;43.46;;
66747;Laerm;53658;50.742;10.864;2023-02-01T05:29:41;38.81;35.66;41.61;;
66747;Laerm;53658;50.742;10.864;2023-02-01T05:32:09;38.78;36.45;42.59;;
66747;Laerm;53658;50.742;10.864;2023-02-01T05:34:35;38.82;36.20;42.47;;
66747;Laerm;53658;50.742;10.864;2023-02-01T05:37:02;38.77;35.66;42.35;;
66747;Laerm;53658;50.742;10.864;2023-02-01T05:39:28;38.76;35.94;42.79;;
66747;Laerm;53658;50.742;10.864;2023-02-01T05:41:54;38.91;36.20;43.72;;
66747;Laerm;53658;50.742;10.864;2023-02-01T05:44:20;39.05;36.45;46.66;;
66747;Laerm;53658;50.742;10.864;2023-02-01T05:46:46;38.86;35.94;43.09;;
66747;Laerm;53658;50.742;10.864;2023-02-01T05:49:11;38.89;36.10;43.39;;
66747;Laerm;53658;50.742;10.864;2023-02-01T05:51:37;38.95;36.34;44.27;;
66747;Laerm;53658;50.742;10.864;2023-02-01T05:54:03;38.81;36.20;42.65;;
66747;Laerm;53658;50.742;10.864;2023-02-01T05:56:29;38.83;36.20;41.82;;
66747;Laerm;53658;50.742;10.864;2023-02-01T05:58:55;38.84;35.66;43.29;;
66747;Laerm;53658;50.742;10.864;2023-02-01T06:01:20;38.94;36.20;44.15;;
66747;Laerm;53658;50.742;10.864;2023-02-01T06:03:46;38.92;35.66;42.35;;
66747;Laerm;53658;50.742;10.864;2023-02-01T06:06:12;38.99;35.94;43.94;;
66747;Laerm;53658;50.742;10.864;2023-02-01T06:08:38;39.13;36.45;43.63;;
66747;Laerm;53658;50.742;10.864;2023-02-01T06:11:06;38.96;36.20;42.41;;
66747;Laerm;53658;50.742;10.864;2023-02-01T06:13:32;39.23;36.20;46.15;;
66747;Laerm;53658;50.742;10.864;2023-02-01T06:15:58;38.97;36.45;41.68;;
66747;Laerm;53658;50.742;10.864;2023-02-01T06:18:24;39.11;36.45;47.84;;
66747;Laerm;53658;50.742;10.864;2023-02-01T06:20:55;38.95;36.20;42.93;;
66747;Laerm;53658;50.742;10.864;2023-02-01T06:23:21;39.34;36.56;46.66;;
66747;Laerm;53658;50.742;10.864;2023-02-01T06:25:58;38.91;36.45;41.96;;
66747;Laerm;53658;50.742;10.864;2023-02-01T06:28:25;39.32;36.69;44.34;;
66747;Laerm;53658;50.742;10.864;2023-02-01T06:30:51;39.10;36.45;44.54;;
66747;Laerm;53658;50.742;10.864;2023-02-01T06:33:17;39.32;36.45;46.13;;
66747;Laerm;53658;50.742;10.864;2023-02-01T06:35:43;39.88;36.69;57.89;;
66747;Laerm;53658;50.742;10.864;2023-02-01T06:38:11;39.17;35.94;47.34;;
66747;Laerm;53658;50.742;10.864;2023-02-01T06:40:37;39.13;36.20;43.72;;
66747;Laerm;53658;50.742;10.864;2023-02-01T06:43:03;39.32;36.45;46.69;;
66747;Laerm;53658;50.742;10.864;2023-02-01T06:45:29;39.20;36.45;46.05;;
66747;Laerm;53658;50.742;10.864;2023-02-01T06:47:55;38.96;36.20;41.68;;
66747;Laerm;53658;50.742;10.864;2023-02-01T06:50:21;39.15;36.20;46.91;;
66747;Laerm;53658;50.742;10.864;2023-02-01T06:52:47;39.58;36.20;51.10;;
66747;Laerm;53658;50.742;10.864;2023-02-01T06:55:13;39.25;36.69;47.88;;
66747;Laerm;53658;50.742;10.864;2023-02-01T06:57:39;39.46;36.45;49.75;;
66747;Laerm;53658;50.742;10.864;2023-02-01T07:00:05;39.26;36.45;44.23;;
66747;Laerm;53658;50.742;10.864;2023-02-01T07:02:31;39.78;36.45;51.40;;
66747;Laerm;53658;50.742;10.864;2023-02-01T07:04:57;39.40;36.69;45.27;;
66747;Laerm;53658;50.742;10.864;2023-02-01T07:07:22;39.41;36.69;45.11;;
66747;Laerm;53658;50.742;10.864;2023-02-01T07:09:49;39.38;36.45;45.60;;
66747;Laerm;53658;50.742;10.864;2023-02-01T07:12:15;39.48;36.20;51.71;;
66747;Laerm;53658;50.742;10.864;2023-02-01T07:14:41;39.30;36.45;44.90;;
66747;Laerm;53658;50.742;10.864;2023-02-01T07:17:07;39.50;36.69;47.88;;
66747;Laerm;53658;50.742;10.864;2023-02-01T07:19:33;39.64;36.69;49.41;;
66747;Laerm;53658;50.742;10.864;2023-02-01T07:21:59;39.14;36.69;42.03;;
66747;Laerm;53658;50.742;10.864;2023-02-01T07:24:25;39.68;36.45;50.08;;
66747;Laerm;53658;50.742;10.864;2023-02-01T07:26:50;39.40;36.69;44.35;;
66747;Laerm;53658;50.742;10.864;2023-02-01T07:29:17;39.38;36.91;49.90;;
66747;Laerm;53658;50.742;10.864;2023-02-01T07:31:43;39.48;36.45;53.00;;
66747;Laerm;53658;50.742;10.864;2023-02-01T07:34:09;39.30;36.69;44.76;;
66747;Laerm;53658;50.742;10.864;2023-02-01T07:36:35;39.18;36.69;42.35;;
66747;Laerm;53658;50.742;10.864;2023-02-01T07:39:05;39.38;36.69;44.80;;
66747;Laerm;53658;50.742;10.864;2023-02-01T07:41:31;39.33;36.69;48.42;;
66747;Laerm;53658;50.742;10.864;2023-02-01T07:43:57;39.59;36.91;48.15;;
66747;Laerm;53658;50.742;10.864;2023-02-01T07:46:23;39.55;37.12;47.74;;
66747;Laerm;53658;50.742;10.864;2023-02-01T07:48:49;39.48;35.36;45.97;;
66747;Laerm;53658;50.742;10.864;2023-02-01T07:51:16;39.67;37.12;48.29;;
66747;Laerm;53658;50.742;10.864;2023-02-01T07:53:43;40.42;37.12;54.89;;
66747;Laerm;53658;50.742;10.864;2023-02-01T07:56:15;39.77;37.12;48.21;;
66747;Laerm;53658;50.742;10.864;2023-02-01T07:58:42;39.53;37.12;46.07;;
66747;Laerm;53658;50.742;10.864;2023-02-01T08:01:23;40.00;37.12;48.98;;
66747;Laerm;53658;50.742;10.864;2023-02-01T08:06:17;39.68;36.91;45.45;;
66747;Laerm;53658;50.742;10.864;2023-02-01T08:08:46;40.06;37.32;52.73;;
66747;Laerm;53658;50.742;10.864;2023-02-01T08:11:13;40.47;36.91;58.51;;
66747;Laerm;53658;50.742;10.864;2023-02-01T08:13:39;39.55;36.91;46.57;;
66747;Laerm;53658;50.742;10.864;2023-02-01T08:16:07;39.78;37.12;51.56;;
66747;Laerm;53658;50.742;10.864;2023-02-01T08:18:36;39.49;37.12;46.02;;
66747;Laerm;53658;50.742;10.864;2023-02-01T08:23:33;39.94;37.12;52.44;;
66747;Laerm;53658;50.742;10.864;2023-02-01T08:26:13;39.77;36.20;52.60;;
66747;Laerm;53658;50.742;10.864;2023-02-01T08:28:43;40.22;37.12;52.09;;
66747;Laerm;53658;50.742;10.864;2023-02-01T08:31:12;39.38;37.12;43.44;;
66747;Laerm;53658;50.742;10.864;2023-02-01T08:33:41;39.46;36.69;49.44;;
66747;Laerm;53658;50.742;10.864;2023-02-01T08:36:09;39.46;37.12;45.14;;
66747;Laerm;53658;50.742;10.864;2023-02-01T08:38:38;39.77;36.69;46.18;;
66747;Laerm;53658;50.742;10.864;2023-02-01T08:41:10;39.57;37.32;47.90;;
66747;Laerm;53658;50.742;10.864;2023-02-01T08:43:37;39.53;36.91;43.39;;
66747;Laerm;53658;50.742;10.864;2023-02-01T08:46:04;39.71;36.91;45.86;;
66747;Laerm;53658;50.742;10.864;2023-02-01T08:48:31;39.51;37.12;41.96;;
66747;Laerm;53658;50.742;10.864;2023-02-01T08:50:57;39.78;37.12;46.84;;
66747;Laerm;53658;50.742;10.864;2023-02-01T08:53:24;39.19;36.45;43.34;;
66747;Laerm;53658;50.742;10.864;2023-02-01T08:55:50;39.18;36.69;43.19;;
66747;Laerm;53658;50.742;10.864;2023-02-01T08:58:15;39.01;35.94;43.49;;
66747;Laerm;53658;50.742;10.864;2023-02-01T09:00:43;38.86;35.94;42.59;;
66747;Laerm;53658;50.742;10.864;2023-02-01T09:03:11;38.83;36.20;43.04;;
66747;Laerm;53658;50.742;10.864;2023-02-01T09:05:38;38.66;35.36;42.82;;
66747;Laerm;53658;50.742;10.864;2023-02-01T09:08:04;38.79;35.66;43.29;;
66747;Laerm;53658;50.742;10.864;2023-02-01T09:10:31;38.91;36.20;44.73;;
66747;Laerm;53658;50.742;10.864;2023-02-01T09:12:57;38.78;35.66;42.59;;
66747;Laerm;53658;50.742;10.864;2023-02-01T09:15:23;38.80;36.20;42.35;;
66747;Laerm;53658;50.742;10.864;2023-02-01T09:17:49;38.94;35.66;42.93;;
66747;Laerm;53658;50.742;10.864;2023-02-01T09:20:15;38.90;35.94;42.41;;
66747;Laerm;53658;50.742;10.864;2023-02-01T09:22:41;38.87;36.45;46.71;;
66747;Laerm;53658;50.742;10.864;2023-02-01T09:25:07;38.77;35.36;42.00;;
66747;Laerm;53658;50.742;10.864;2023-02-01T09:27:34;38.60;35.66;43.39;;
66747;Laerm;53658;50.742;10.864;2023-02-01T09:30:00;38.66;35.36;42.41;;
66747;Laerm;53658;50.742;10.864;2023-02-01T09:32:26;38.68;35.94;42.16;;
66747;Laerm;53658;50.742;10.864;2023-02-01T09:34:53;39.14;36.45;44.39;;
66747;Laerm;53658;50.742;10.864;2023-02-01T09:37:19;38.85;35.94;41.61;;
66747;Laerm;53658;50.742;10.864;2023-02-01T09:39:45;38.93;35.66;44.43;;
66747;Laerm;53658;50.742;10.864;2023-02-01T09:42:16;39.03;36.20;43.34;;
66747;Laerm;53658;50.742;10.864;2023-02-01T09:47:24;39.06;36.20;47.50;;
66747;Laerm;53658;50.742;10.864;2023-02-01T09:52:38;39.56;36.45;45.94;;
66747;Laerm;53658;50.742;10.864;2023-02-01T09:55:13;39.81;36.69;52.04;;
66747;Laerm;53658;50.742;10.864;2023-02-01T09:57:51;39.42;37.12;46.23;;
66747;Laerm;53658;50.742;10.864;2023-02-01T10:00:27;39.43;36.91;43.90;;
66747;Laerm;53658;50.742;10.864;2023-02-01T10:02:56;39.61;37.12;44.76;;
66747;Laerm;53658;50.742;10.864;2023-02-01T10:11:27;39.75;37.12;49.49;;
66747;Laerm;53658;50.742;10.864;2023-02-01T10:22:41;39.65;37.12;44.39;;
66747;Laerm;53658;50.742;10.864;2023-02-01T10:25:26;39.65;37.52;43.81;;
66747;Laerm;53658;50.742;10.864;2023-02-01T10:27:53;39.86;37.52;43.54;;
66747;Laerm;53658;50.742;10.864;2023-02-01T10:30:23;39.91;37.52;43.34;;
66747;Laerm;53658;50.742;10.864;2023-02-01T10:32:55;40.11;37.32;48.15;;
66747;Laerm;53658;50.742;10.864;2023-02-01T10:35:30;40.10;38.05;50.04;;
66747;Laerm;53658;50.742;10.864;2023-02-01T10:38:30;40.20;37.52;46.76;;
66747;Laerm;53658;50.742;10.864;2023-02-01T10:41:03;40.67;37.12;53.60;;
66747;Laerm;53658;50.742;10.864;2023-02-01T10:43:33;39.73;37.12;44.23;;
66747;Laerm;53658;50.742;10.864;2023-02-01T10:45:59;39.84;37.52;44.65;;
66747;Laerm;53658;50.742;10.864;2023-02-01T10:48:25;39.81;37.12;43.90;;
66747;Laerm;53658;50.742;10.864;2023-02-01T10:50:57;39.64;37.52;42.71;;
66747;Laerm;53658;50.742;10.864;2023-02-01T10:55:57;40.01;37.52;53.18;;
66747;Laerm;53658;50.742;10.864;2023-02-01T10:58:32;39.76;37.32;45.17;;
66747;Laerm;53658;50.742;10.864;2023-02-01T11:01:06;39.65;37.52;50.64;;
66747;Laerm;53658;50.742;10.864;2023-02-01T11:03:44;39.58;37.32;45.04;;
66747;Laerm;53658;50.742;10.864;2023-02-01T11:08:48;39.59;37.12;44.65;;
66747;Laerm;53658;50.742;10.864;2023-02-01T11:11:14;40.02;37.32;47.79;;
66747;Laerm;53658;50.742;10.864;2023-02-01T11:13:41;39.67;37.12;46.23;;
66747;Laerm;53658;50.742;10.864;2023-02-01T11:16:13;39.57;37.12;43.90;;
66747;Laerm;53658;50.742;10.864;2023-02-01T11:18:40;39.67;36.69;45.99;;
66747;Laerm;53658;50.742;10.864;2023-02-01T11:21:08;39.78;36.69;51.91;;
66747;Laerm;53658;50.742;10.864;2023-02-01T11:23:42;39.41;37.12;42.35;;
66747;Laerm;53658;50.742;10.864;2023-02-01T11:28:40;39.68;37.12;47.16;;
66747;Laerm;53658;50.742;10.864;2023-02-01T11:31:11;39.75;37.32;43.54;;
66747;Laerm;53658;50.742;10.864;2023-02-01T11:33:45;39.63;37.12;44.80;;
66747;Laerm;53658;50.742;10.864;2023-02-01T11:36:17;39.65;36.91;43.09;;
66747;Laerm;53658;50.742;10.864;2023-02-01T11:38:54;40.18;37.12;50.13;;
66747;Laerm;53658;50.742;10.864;2023-02-01T11:41:32;39.83;37.32;47.98;;
66747;Laerm;53658;50.742;10.864;2023-02-01T11:44:00;39.61;36.91;42.47;;
66747;Laerm;53658;50.742;10.864;2023-02-01T11:46:32;39.74;37.32;43.19;;
66747;Laerm;53658;50.742;10.864;2023-02-01T11:49:22;40.16;37.12;50.72;;
66747;Laerm;53658;50.742;10.864;2023-02-01T12:05:27;39.58;37.32;43.39;;
66747;Laerm;53658;50.742;10.864;2023-02-01T12:19:23;39.72;37.70;42.22;;
66747;Laerm;53658;50.742;10.864;2023-02-01T12:30:22;39.73;37.52;45.54;;
66747;Laerm;53658;50.742;10.864;2023-02-01T12:38:48;40.64;37.52;53.59;;
66747;Laerm;53658;50.742;10.864;2023-02-01T12:44:03;39.90;37.32;47.84;;
66747;Laerm;53658;50.742;10.864;2023-02-01T12:46:52;40.08;37.52;46.10;;
66747;Laerm;53658;50.742;10.864;2023-02-01T12:52:13;39.53;37.32;42.22;;
66747;Laerm;53658;50.742;10.864;2023-02-01T12:55:01;39.54;36.45;43.72;;
66747;Laerm;53658;50.742;10.864;2023-02-01T12:57:36;39.52;37.12;41.61;;
66747;Laerm;53658;50.742;10.864;2023-02-01T13:00:22;39.65;37.12;43.54;;
66747;Laerm;53658;50.742;10.864;2023-02-01T13:05:18;39.81;37.52;44.76;;
66747;Laerm;53658;50.742;10.864;2023-02-01T13:08:02;39.88;36.69;48.13;;
66747;Laerm;53658;50.742;10.864;2023-02-01T13:10:40;40.24;37.70;51.64;;
66747;Laerm;53658;50.742;10.864;2023-02-01T13:13:11;39.85;37.52;43.39;;
66747;Laerm;53658;50.742;10.864;2023-02-01T13:16:28;40.48;36.69;49.16;;
66747;Laerm;53658;50.742;10.864;2023-02-01T13:18:41;40.02;37.12;50.33;;
66747;Laerm;53658;50.742;10.864;2023-02-01T13:21:14;40.07;37.88;47.61;;
66747;Laerm;53658;50.742;10.864;2023-02-01T13:23:46;40.10;37.70;48.48;;
66747;Laerm;53658;50.742;10.864;2023-02-01T13:26:14;40.55;37.70;51.23;;
66747;Laerm;53658;50.742;10.864;2023-02-01T13:28:59;40.01;37.88;47.81;;
66747;Laerm;53658;50.742;10.864;2023-02-01T13:31:30;40.16;37.70;45.89;;
66747;Laerm;53658;50.742;10.864;2023-02-01T13:42:59;40.62;37.88;54.64;;
66747;Laerm;53658;50.742;10.864;2023-02-01T13:45:33;40.19;37.32;50.14;;
66747;Laerm;53658;50.742;10.864;2023-02-01T13:48:04;39.73;37.52;43.81;;
66747;Laerm;53658;50.742;10.864;2023-02-01T13:50:35;39.57;37.32;43.09;;
66747;Laerm;53658;50.742;10.864;2023-02-01T13:53:16;39.60;37.12;42.53;;
66747;Laerm;53658;50.742;10.864;2023-02-01T13:55:57;39.53;37.12;45.83;;
66747;Laerm;53658;50.742;10.864;2023-02-01T13:58:37;39.71;36.69;46.29;;
66747;Laerm;53658;50.742;10.864;2023-02-01T14:03:59;39.53;37.12;42.41;;
66747;Laerm;53658;50.742;10.864;2023-02-01T14:11:51;40.02;37.32;55.36;;
66747;Laerm;53658;50.742;10.864;2023-02-01T14:17:31;39.89;37.32;48.90;;
66747;Laerm;53658;50.742;10.864;2023-02-01T14:19:32;40.29;37.32;51.03;;
66747;Laerm;53658;50.742;10.864;2023-02-01T14:22:00;39.63;36.69;45.42;;
66747;Laerm;53658;50.742;10.864;2023-02-01T14:24:30;39.47;37.32;42.88;;
66747;Laerm;53658;50.742;10.864;2023-02-01T14:29:50;40.04;37.32;51.08;;
66747;Laerm;53658;50.742;10.864;2023-02-01T14:32:31;39.52;37.12;42.98;;
66747;Laerm;53658;50.742;10.864;2023-02-01T14:35:01;39.91;37.12;52.00;;
66747;Laerm;53658;50.742;10.864;2023-02-01T14:37:37;40.24;37.12;53.81;;
66747;Laerm;53658;50.742;10.864;2023-02-01T14:40:18;39.64;37.12;45.28;;
66747;Laerm;53658;50.742;10.864;2023-02-01T14:42:48;39.47;36.91;43.14;;
66747;Laerm;53658;50.742;10.864;2023-02-01T14:47:43;39.70;36.91;48.23;;
66747;Laerm;53658;50.742;10.864;2023-02-01T14:50:11;39.40;36.69;46.78;;
66747;Laerm;53658;50.742;10.864;2023-02-01T14:52:43;39.18;36.69;45.04;;
66747;Laerm;53658;50.742;10.864;2023-02-01T14:55:40;39.21;36.91;42.41;;
66747;Laerm;53658;50.742;10.864;2023-02-01T14:58:18;39.34;36.91;46.78;;
66747;Laerm;53658;50.742;10.864;2023-02-01T15:00:51;39.18;36.69;42.65;;
66747;Laerm;53658;50.742;10.864;2023-02-01T15:05:59;39.65;36.69;52.00;;
66747;Laerm;53658;50.742;10.864;2023-02-01T15:08:39;39.22;36.91;43.34;;
66747;Laerm;53658;50.742;10.864;2023-02-01T15:11:13;39.61;36.69;49.53;;
66747;Laerm;53658;50.742;10.864;2023-02-01T15:13:50;39.90;36.20;55.27;;
66747;Laerm;53658;50.742;10.864;2023-02-01T15:16:20;39.37;36.69;45.23;;
66747;Laerm;53658;50.742;10.864;2023-02-01T15:18:48;39.26;36.45;46.25;;
66747;Laerm;53658;50.742;10.864;2023-02-01T15:21:20;39.56;35.66;49.51;;
66747;Laerm;53658;50.742;10.864;2023-02-01T15:23:47;39.21;36.20;48.10;;
66747;Laerm;53658;50.742;10.864;2023-02-01T15:26:31;39.18;36.45;46.71;;
66747;Laerm;53658;50.742;10.864;2023-02-01T15:28:58;39.18;36.20;48.71;;
66747;Laerm;53658;50.742;10.864;2023-02-01T15:31:34;38.93;35.94;43.63;;
66747;Laerm;53658;50.742;10.864;2023-02-01T15:34:00;39.60;36.45;53.95;;
66747;Laerm;53658;50.742;10.864;2023-02-01T15:36:26;39.06;36.45;42.95;;
66747;Laerm;53658;50.742;10.864;2023-02-01T15:41:47;41.57;36.69;56.50;;
66747;Laerm;53658;50.742;10.864;2023-02-01T15:44:17;39.25;36.69;44.19;;
66747;Laerm;53658;50.742;10.864;2023-02-01T15:46:48;39.21;36.45;43.29;;
66747;Laerm;53658;50.742;10.864;2023-02-01T15:49:24;39.16;36.20;42.82;;
66747;Laerm;53658;50.742;10.864;2023-02-01T15:51:53;39.32;36.45;43.99;;
66747;Laerm;53658;50.742;10.864;2023-02-01T15:55:17;39.33;36.45;48.78;;
66747;Laerm;53658;50.742;10.864;2023-02-01T15:57:38;42.18;36.69;61.31;;
66747;Laerm;53658;50.742;10.864;2023-02-01T16:00:27;40.03;35.94;51.98;;
66747;Laerm;53658;50.742;10.864;2023-02-01T16:02:57;40.21;37.12;54.65;;
66747;Laerm;53658;50.742;10.864;2023-02-01T16:08:04;39.17;36.45;44.87;;
66747;Laerm;53658;50.742;10.864;2023-02-01T16:10:39;39.39;36.45;45.39;;